Kalisz, Poland

8:08 PM CET on January 27, 2015 (GMT +0100)
IWIELKOP25 | Change Station
CLOSE
Current Station
Personal Weather Station
Location: Mikstat, WIELKOPOLSKA
Elevation: 551 ft
Nearby Weather Stations

Elev 551 ft 51.53 °N, 17.93 °E | Updated 0 second ago

Overcast
Overcast
34.3 °F
Feels Like 29 °F
N
5.8
Wind Variable Wind from NW
Gusts 5.8 mph

Today
High -- | Low -- °F
--% Chance of Precip.
Yesterday
High -- | Low -- °F
Precip. -- in
7:34 AM 4:26 PM
First Quarter, 56% visible
Pressure 29.89 in
Visibility 6.2 miles
Clouds Mostly Cloudy 1000 ft
Overcast 3100 ft
Windchill 29 °F
Dew Point 32 °F
Humidity 93%
Rainfall 0.37 in
Snow Depth Not available.
UV 0 out of 12
Pollen Not available.
Air Quality Not available.
Flu Activity Not available.
METAR EPLL 271900Z 25007KT 9999 BKN010 OVC031 01/M00 Q1012 R25/4/0293

More Conditions Fewer Conditions

Pressure 29.89 in
Visibility 6.2 miles
Clouds Mostly Cloudy 1000 ft
Overcast 3100 ft
Windchill 29 °F
Dew Point 32 °F
Humidity 93%
Rainfall 0.37 in
Snow Depth Not available.
UV 0 out of 12
Pollen Not available.
Air Quality Not available.
Flu Activity Not available.
METAR EPLL 271900Z 25007KT 9999 BKN010 OVC031 01/M00 Q1012 R25/4/0293

More Conditions Fewer Conditions

10-Day Weather Forecast

Almanac

Astronomy

Jan. 27, 2015 Rise Set
Actual Time
Civil Twilight
Nautical Twilight
Astronomical Twilight
Moon
Length of Visible Light
Length of Day
Tomorrow will be .
, % of the Moon is Illuminated

Today's Extremes

Country Highs Country Lows

Community

WunderPhotos

Upload Photos

1,790,783 photos uploaded!

WunderBlogs® & News

Nearby

Air Quality

  Air Quality AQ Index Pollutant
Not available.

Snow Depth

Station Depth Elevation

Earthquake Activity

City Distance Mag. Time & Date
Minimum magnitude displayed is 2.5.

Coastal Water Temperatures

Place Temperature

Nearby Weather Stations